Time;durP1;ratioP1;P1;durP2;ratioP2;P2;SDS_P1;SDS_P2;PMS_P1;PMS_P2;Temp;Humidity;BMP_temperature;BMP_pressure;BME280_temperature;BME280_humidity;BME280_pressure;Samples;Min_cycle;Max_cycle;Signal;HPM_P1;HPM_P2
2023/01/12 00:01:52;;;;;;;12.57;2.75;;;7.30;99.90;;;;;;5031013;28;20049;-66
2023/01/12 00:04:19;;;;;;;8.77;2.92;;;7.30;99.90;;;;;;5032355;28;20037;-65
2023/01/12 00:06:47;;;;;;;11.95;2.72;;;7.30;99.90;;;;;;5032225;28;20148;-65
2023/01/12 00:09:15;;;;;;;10.93;3.40;;;7.30;99.90;;;;;;5030864;28;20526;-65
2023/01/12 00:11:42;;;;;;;10.63;2.75;;;7.30;99.90;;;;;;5032150;28;20132;-66
2023/01/12 00:14:10;;;;;;;11.60;3.42;;;7.40;99.90;;;;;;5030719;28;20045;-65
2023/01/12 00:16:37;;;;;;;11.68;2.88;;;7.40;99.90;;;;;;5032057;28;20049;-65
2023/01/12 00:19:18;;;;;;;15.23;2.83;;;7.40;99.90;;;;;;5030873;28;20127;-66
2023/01/12 00:21:55;;;;;;;8.77;2.70;;;7.30;99.90;;;;;;5031295;28;20041;-67
2023/01/12 00:24:28;;;;;;;15.40;3.03;;;7.40;99.90;;;;;;5032161;28;20590;-65
2023/01/12 00:26:57;;;;;;;8.80;2.50;;;7.40;99.90;;;;;;5031876;28;20049;-66
2023/01/12 00:29:26;;;;;;;11.95;3.35;;;7.40;99.90;;;;;;5032072;28;20128;-67
2023/01/12 00:31:55;;;;;;;9.90;2.50;;;7.40;99.90;;;;;;5030569;28;20493;-66
2023/01/12 00:34:23;;;;;;;13.30;2.70;;;7.30;99.90;;;;;;5030663;28;20404;-66
2023/01/12 00:36:50;;;;;;;8.50;2.47;;;7.30;99.90;;;;;;5031835;28;20456;-66
2023/01/12 00:39:18;;;;;;;10.77;2.50;;;7.30;99.90;;;;;;5032570;28;20460;-67
2023/01/12 00:47:18;;;;;;;11.63;2.33;;;7.30;99.90;;;;;;5028880;28;20052;-65
2023/01/12 00:49:45;;;;;;;11.32;2.88;;;7.30;99.90;;;;;;5030671;28;20048;-65
2023/01/12 00:52:16;;;;;;;17.52;3.08;;;7.40;99.90;;;;;;5030560;28;20037;-65
2023/01/12 00:54:56;;;;;;;9.15;2.88;;;7.40;99.90;;;;;;5029977;28;20110;-65
2023/01/12 00:57:23;;;;;;;12.82;2.88;;;7.40;99.90;;;;;;5031484;28;20393;-65
2023/01/12 00:59:53;;;;;;;12.98;2.70;;;7.40;99.90;;;;;;5013948;28;20065;-67
2023/01/12 01:02:22;;;;;;;6.95;2.65;;;7.40;99.90;;;;;;5030175;28;20056;-66
2023/01/12 01:04:50;;;;;;;11.00;3.38;;;7.40;99.90;;;;;;5018043;28;20149;-66
2023/01/12 01:07:20;;;;;;;12.70;2.40;;;7.40;99.90;;;;;;5033992;28;20044;-66
2023/01/12 01:09:48;;;;;;;12.43;2.45;;;7.50;99.90;;;;;;5039771;28;20489;-66
2023/01/12 01:12:15;;;;;;;11.35;2.45;;;7.50;99.90;;;;;;5029951;28;20132;-66
2023/01/12 01:14:43;;;;;;;9.30;2.42;;;7.50;99.90;;;;;;5016620;28;20057;-67
2023/01/12 01:17:10;;;;;;;9.25;2.08;;;7.60;99.90;;;;;;5030577;28;20412;-66
2023/01/12 01:19:37;;;;;;;10.75;2.78;;;7.50;99.90;;;;;;5035019;28;20167;-66
2023/01/12 01:22:04;;;;;;;9.02;2.58;;;7.50;99.90;;;;;;5028736;28;20049;-65
2023/01/12 01:24:32;;;;;;;11.75;2.15;;;7.50;99.90;;;;;;5024917;28;20045;-66
2023/01/12 01:26:59;;;;;;;14.13;3.00;;;7.50;99.90;;;;;;5030758;28;20041;-66
2023/01/12 01:29:26;;;;;;;9.25;2.30;;;7.50;99.90;;;;;;5032560;28;20041;-65
2023/01/12 01:31:54;;;;;;;12.43;2.30;;;7.40;99.90;;;;;;5029795;28;20049;-66
2023/01/12 01:34:25;;;;;;;14.15;2.30;;;7.40;99.90;;;;;;5029831;28;20059;-66
2023/01/12 01:36:52;;;;;;;10.68;2.50;;;7.40;99.90;;;;;;5030305;28;20037;-66
2023/01/12 01:39:19;;;;;;;12.75;2.97;;;7.40;99.90;;;;;;5029868;28;20550;-66
2023/01/12 01:41:47;;;;;;;9.82;2.20;;;7.50;99.90;;;;;;5030274;28;20061;-66
2023/01/12 01:44:29;;;;;;;12.18;2.53;;;7.40;99.90;;;;;;5030047;28;20033;-66
2023/01/12 01:47:16;;;;;;;7.18;2.17;;;7.40;99.90;;;;;;5024085;28;20045;-66
2023/01/12 01:49:48;;;;;;;6.72;2.20;;;7.40;99.90;;;;;;5020112;28;20042;-67
2023/01/12 01:52:32;;;;;;;11.70;2.33;;;7.40;99.90;;;;;;5030443;28;20128;-65
2023/01/12 01:55:32;;;;;;;10.65;2.55;;;7.40;99.90;;;;;;5030485;28;20066;-66
2023/01/12 01:58:04;;;;;;;8.05;2.03;;;7.30;99.90;;;;;;5031524;28;20551;-65
2023/01/12 02:00:32;;;;;;;9.52;2.20;;;7.30;99.90;;;;;;5028435;28;20053;-65
2023/01/12 02:03:03;;;;;;;4.50;2.17;;;7.30;99.90;;;;;;5028309;28;20057;-65
2023/01/12 02:05:31;;;;;;;10.05;2.20;;;7.30;99.90;;;;;;5030148;28;20132;-65
2023/01/12 02:08:06;;;;;;;8.98;2.10;;;7.30;99.90;;;;;;5030079;28;20071;-65
2023/01/12 02:10:33;;;;;;;10.73;3.00;;;7.20;99.90;;;;;;5035247;28;20109;-65
2023/01/12 02:16:22;;;;;;;11.63;2.35;;;7.20;99.90;;;;;;5044813;28;20049;-66
2023/01/12 02:19:11;;;;;;;11.85;2.78;;;7.10;99.90;;;;;;5016427;28;20539;-66
2023/01/12 02:22:16;;;;;;;10.70;2.28;;;7.10;99.90;;;;;;5037549;28;20127;-66
2023/01/12 02:25:04;;;;;;;9.13;2.20;;;7.00;99.90;;;;;;5029797;28;20038;-66
2023/01/12 02:28:13;;;;;;;6.50;1.80;;;7.00;99.90;;;;;;5035298;28;20531;-65
2023/01/12 02:31:04;;;;;;;8.57;2.20;;;7.00;99.90;;;;;;5024542;28;20456;-67
2023/01/12 02:33:44;;;;;;;5.72;2.30;;;7.00;99.90;;;;;;5028207;28;20095;-66
2023/01/12 02:36:20;;;;;;;6.78;1.90;;;6.90;99.90;;;;;;5028464;28;20136;-66
2023/01/12 02:39:04;;;;;;;8.35;2.33;;;6.80;99.90;;;;;;5022531;28;20097;-66
2023/01/12 02:45:37;;;;;;;7.97;1.90;;;6.70;99.90;;;;;;5030380;28;20067;-66
2023/01/12 02:48:24;;;;;;;9.52;2.22;;;6.70;99.90;;;;;;5026029;28;20559;-66
2023/01/12 02:51:04;;;;;;;7.78;2.45;;;6.60;99.90;;;;;;5028525;28;20459;-66
2023/01/12 02:53:49;;;;;;;6.88;1.95;;;6.50;99.90;;;;;;5029238;28;20515;-67
2023/01/12 02:56:22;;;;;;;6.35;2.30;;;6.50;99.90;;;;;;5030488;28;20563;-66
2023/01/12 02:58:54;;;;;;;6.40;2.00;;;6.50;99.90;;;;;;5043217;28;20045;-66
2023/01/12 03:01:24;;;;;;;9.98;2.30;;;6.50;99.90;;;;;;5030900;28;20115;-65
2023/01/12 03:03:55;;;;;;;9.30;2.65;;;6.40;99.90;;;;;;5033325;28;20053;-66
2023/01/12 03:06:22;;;;;;;3.20;1.73;;;6.40;99.90;;;;;;5021472;28;20417;-65
2023/01/12 03:08:51;;;;;;;7.07;2.00;;;6.40;99.90;;;;;;5025996;28;20443;-65
2023/01/12 03:11:21;;;;;;;5.22;2.00;;;6.40;99.90;;;;;;5028008;28;20559;-66
2023/01/12 03:13:57;;;;;;;4.80;2.20;;;6.30;99.90;;;;;;5027522;28;20096;-66
2023/01/12 03:16:28;;;;;;;9.68;2.20;;;6.40;99.90;;;;;;5038492;28;20488;-67
2023/01/12 03:19:08;;;;;;;7.57;2.40;;;6.30;99.90;;;;;;5027294;28;20503;-64
2023/01/12 03:21:39;;;;;;;7.72;2.13;;;6.30;99.90;;;;;;5038820;28;20132;-65
2023/01/12 03:24:14;;;;;;;13.93;2.20;;;6.20;99.90;;;;;;4994164;28;20445;-67
2023/01/12 03:26:47;;;;;;;8.68;1.90;;;6.20;99.90;;;;;;5031200;28;20309;-66
2023/01/12 03:29:34;;;;;;;7.38;2.33;;;6.30;99.90;;;;;;5032287;28;20041;-66
2023/01/12 03:32:02;;;;;;;11.27;2.80;;;6.20;99.90;;;;;;5015329;28;20528;-63
2023/01/12 03:34:32;;;;;;;6.60;2.42;;;6.20;99.90;;;;;;5031481;28;20049;-63
2023/01/12 03:37:10;;;;;;;13.98;2.50;;;6.20;99.90;;;;;;5032685;28;20049;-68
2023/01/12 03:39:58;;;;;;;7.07;2.42;;;6.20;99.90;;;;;;5021956;28;20065;-67
2023/01/12 03:42:36;;;;;;;7.97;2.38;;;6.20;99.90;;;;;;5036122;28;20080;-65
2023/01/12 03:45:25;;;;;;;13.48;2.25;;;6.20;99.90;;;;;;5032137;28;20041;-66
2023/01/12 03:48:23;;;;;;;7.13;2.33;;;6.20;99.90;;;;;;5029961;28;20076;-63
2023/01/12 03:50:59;;;;;;;7.13;2.05;;;6.00;99.90;;;;;;5033706;28;20045;-64
2023/01/12 03:53:28;;;;;;;11.07;2.70;;;6.00;99.90;;;;;;5039977;28;20049;-65
2023/01/12 03:56:01;;;;;;;7.93;2.15;;;6.00;99.90;;;;;;5030416;28;20053;-65
2023/01/12 03:58:29;;;;;;;6.53;2.08;;;6.00;99.90;;;;;;5032720;28;20152;-63
2023/01/12 04:00:56;;;;;;;10.70;2.10;;;6.00;99.90;;;;;;5038341;28;20595;-63
2023/01/12 04:03:25;;;;;;;6.88;2.28;;;6.00;99.90;;;;;;5032575;28;20068;-64
2023/01/12 04:05:52;;;;;;;8.38;2.20;;;6.00;99.90;;;;;;5031319;28;20377;-64
2023/01/12 04:08:20;;;;;;;6.32;2.20;;;6.00;99.90;;;;;;5032876;28;20569;-64
2023/01/12 04:10:47;;;;;;;8.98;1.92;;;6.00;99.90;;;;;;5032688;28;20485;-64
2023/01/12 04:13:15;;;;;;;7.78;2.08;;;6.00;99.90;;;;;;5032853;28;20447;-64
2023/01/12 04:15:42;;;;;;;8.18;2.30;;;6.00;99.90;;;;;;5029583;28;20041;-67
2023/01/12 04:18:11;;;;;;;6.38;1.95;;;6.00;99.90;;;;;;5032346;28;20128;-64
2023/01/12 04:20:39;;;;;;;8.60;2.45;;;6.00;99.90;;;;;;5032227;28;20549;-66
2023/01/12 04:23:06;;;;;;;5.85;2.10;;;5.90;99.90;;;;;;5031829;28;20033;-63
2023/01/12 04:25:34;;;;;;;7.38;2.45;;;5.90;99.90;;;;;;5036207;28;20033;-65
2023/01/12 04:28:02;;;;;;;6.07;2.05;;;5.90;99.90;;;;;;5036216;28;20049;-63
2023/01/12 04:30:31;;;;;;;7.63;2.00;;;6.00;99.90;;;;;;5030428;28;20045;-64
2023/01/12 04:33:00;;;;;;;8.07;2.45;;;6.10;99.90;;;;;;5026278;28;20055;-64
2023/01/12 04:35:28;;;;;;;7.65;2.05;;;6.00;99.90;;;;;;5030818;28;20063;-63
2023/01/12 04:37:55;;;;;;;10.10;2.47;;;6.10;99.90;;;;;;5034092;28;20488;-67
2023/01/12 04:40:23;;;;;;;12.15;2.47;;;6.10;99.90;;;;;;5031484;28;20056;-67
2023/01/12 04:42:59;;;;;;;7.47;2.53;;;6.10;99.90;;;;;;5037233;28;20064;-64
2023/01/12 04:45:28;;;;;;;6.05;2.00;;;6.10;99.90;;;;;;5031517;28;20041;-65
2023/01/12 04:47:59;;;;;;;9.45;2.17;;;6.00;99.90;;;;;;5023694;28;20049;-64
2023/01/12 04:50:26;;;;;;;5.85;1.88;;;5.90;99.90;;;;;;5034001;28;20143;-64
2023/01/12 04:52:53;;;;;;;8.18;2.47;;;5.80;99.90;;;;;;5029543;28;20704;-66
2023/01/12 04:55:21;;;;;;;7.82;1.98;;;5.80;99.90;;;;;;5018646;28;20072;-64
2023/01/12 04:57:48;;;;;;;6.50;2.58;;;5.90;99.90;;;;;;5039566;28;20049;-64
2023/01/12 05:00:16;;;;;;;11.00;2.78;;;5.90;99.90;;;;;;5030522;28;20045;-66
2023/01/12 05:02:43;;;;;;;5.22;2.40;;;5.90;99.90;;;;;;5030846;28;20132;-66
2023/01/12 05:05:10;;;;;;;7.32;2.60;;;5.90;99.90;;;;;;5031443;28;20415;-64
2023/01/12 05:10:21;;;;;;;7.90;2.47;;;5.90;99.90;;;;;;5031625;28;20038;-65
2023/01/12 05:10:25;;;;;;;10.18;2.90;;;6.00;99.90;;;;;;5025343;28;20068;-63
2023/01/12 05:12:52;;;;;;;6.35;2.20;;;5.90;99.90;;;;;;5022221;28;20057;-67
2023/01/12 05:15:20;;;;;;;10.73;3.05;;;5.90;99.90;;;;;;5025857;28;20052;-67
2023/01/12 05:17:47;;;;;;;10.50;2.33;;;6.00;99.90;;;;;;5026857;28;20051;-64
2023/01/12 05:20:14;;;;;;;9.57;2.60;;;5.90;99.90;;;;;;5029244;28;20068;-66
2023/01/12 05:22:42;;;;;;;9.02;2.55;;;6.00;99.90;;;;;;5030714;28;20049;-63
2023/01/12 05:25:09;;;;;;;6.45;2.20;;;5.90;99.90;;;;;;5030894;28;20056;-66
2023/01/12 05:27:36;;;;;;;7.05;2.15;;;6.00;99.90;;;;;;5029835;28;20050;-66
2023/01/12 05:30:05;;;;;;;7.75;2.25;;;6.00;99.90;;;;;;5029889;28;20362;-67
2023/01/12 05:32:37;;;;;;;11.20;2.47;;;6.00;99.90;;;;;;5010023;28;20058;-65
2023/01/12 05:35:08;;;;;;;8.77;3.33;;;6.00;99.90;;;;;;5028893;28;20591;-64
2023/01/12 05:37:35;;;;;;;10.50;3.83;;;6.00;99.90;;;;;;5012739;28;20046;-64
2023/01/12 05:40:03;;;;;;;6.65;2.15;;;6.00;99.90;;;;;;5030247;28;20045;-64
2023/01/12 05:45:16;;;;;;;7.15;2.17;;;5.90;99.90;;;;;;5030656;28;20042;-66
2023/01/12 05:47:43;;;;;;;5.30;2.38;;;5.90;99.90;;;;;;5029933;28;20041;-67
2023/01/12 05:50:11;;;;;;;4.55;2.20;;;5.90;99.90;;;;;;5029087;28;20137;-68
2023/01/12 05:52:38;;;;;;;7.70;2.63;;;5.90;99.90;;;;;;5029919;28;20115;-68
2023/01/12 05:55:06;;;;;;;6.90;2.60;;;5.90;99.90;;;;;;5030170;28;20046;-69
2023/01/12 05:57:33;;;;;;;8.13;3.38;;;5.90;99.90;;;;;;5030029;28;20148;-67
2023/01/12 06:00:01;;;;;;;7.65;2.28;;;5.90;99.90;;;;;;5030191;28;20057;-69
2023/01/12 06:02:38;;;;;;;15.40;2.78;;;5.80;99.90;;;;;;5030476;28;20467;-68
2023/01/12 06:05:08;;;;;;;6.07;2.70;;;5.80;99.90;;;;;;5026469;28;20073;-70
2023/01/12 06:07:36;;;;;;;9.45;2.83;;;5.90;99.90;;;;;;5030469;28;20084;-68
2023/01/12 06:10:04;;;;;;;8.10;2.53;;;5.90;99.90;;;;;;5028848;28;20500;-68
2023/01/12 06:15:17;;;;;;;8.68;2.35;;;5.80;99.90;;;;;;5031032;28;20531;-66
2023/01/12 06:17:44;;;;;;;7.30;2.40;;;5.90;99.90;;;;;;5031338;28;20496;-67
2023/01/12 06:20:16;;;;;;;10.68;2.90;;;5.80;99.90;;;;;;5025883;28;20042;-68
2023/01/12 06:22:44;;;;;;;11.15;2.58;;;5.90;99.90;;;;;;5024791;28;20041;-68
2023/01/12 06:25:11;;;;;;;8.35;2.63;;;5.90;99.90;;;;;;5031030;28;20045;-68
2023/01/12 06:27:39;;;;;;;5.70;2.20;;;6.00;99.90;;;;;;5013012;28;20041;-69
2023/01/12 06:30:07;;;;;;;10.55;2.80;;;5.90;99.90;;;;;;5030903;28;20045;-69
2023/01/12 06:32:35;;;;;;;11.27;3.20;;;5.90;99.90;;;;;;5029226;28;20388;-68
2023/01/12 06:35:02;;;;;;;10.43;3.47;;;5.90;99.90;;;;;;5029206;28;20183;-68
2023/01/12 06:37:44;;;;;;;12.88;3.38;;;5.90;99.90;;;;;;5029672;28;20133;-67
2023/01/12 06:40:12;;;;;;;10.93;2.78;;;5.90;99.90;;;;;;5027954;28;20124;-67
2023/01/12 06:42:40;;;;;;;11.10;3.13;;;5.90;99.90;;;;;;5028065;28;20045;-67
2023/01/12 06:45:09;;;;;;;10.38;2.92;;;6.00;99.90;;;;;;5028505;28;20480;-68
2023/01/12 06:47:44;;;;;;;10.18;2.70;;;6.00;99.90;;;;;;5029758;28;20485;-67
2023/01/12 06:50:12;;;;;;;6.90;2.75;;;6.00;99.90;;;;;;5030899;28;20472;-68
2023/01/12 06:52:39;;;;;;;9.00;2.45;;;6.00;99.90;;;;;;5029729;28;20051;-67
2023/01/12 06:55:07;;;;;;;8.95;2.40;;;6.10;99.90;;;;;;5029854;28;20526;-68
2023/01/12 06:57:34;;;;;;;10.00;3.22;;;6.20;99.90;;;;;;5029439;28;20057;-69
2023/01/12 07:00:04;;;;;;;11.13;2.75;;;6.10;99.90;;;;;;5028842;28;20484;-69
2023/01/12 07:02:31;;;;;;;10.43;2.30;;;6.20;99.90;;;;;;5029577;28;20096;-68
2023/01/12 07:04:59;;;;;;;10.68;3.17;;;6.30;99.90;;;;;;5029503;28;20140;-69
2023/01/12 07:07:26;;;;;;;20.13;3.22;;;6.40;99.90;;;;;;5010031;28;20141;-67
2023/01/12 07:09:53;;;;;;;11.88;2.67;;;6.30;99.90;;;;;;5014741;28;20160;-69
2023/01/12 07:12:21;;;;;;;8.35;2.75;;;6.30;99.90;;;;;;5040184;28;20051;-68
2023/01/12 07:14:48;;;;;;;11.50;2.70;;;6.30;99.90;;;;;;5049939;28;20080;-68
2023/01/12 07:17:15;;;;;;;8.73;2.55;;;6.40;99.90;;;;;;5042958;28;20136;-67
2023/01/12 07:19:43;;;;;;;10.27;2.70;;;6.30;99.90;;;;;;5051759;28;20495;-69
2023/01/12 07:22:10;;;;;;;10.43;2.70;;;6.40;99.90;;;;;;5054462;28;20495;-68
2023/01/12 07:24:37;;;;;;;9.75;2.30;;;6.40;99.90;;;;;;5052734;28;20541;-69
2023/01/12 07:27:05;;;;;;;8.43;2.13;;;6.30;99.90;;;;;;5051623;28;20037;-68
2023/01/12 07:29:32;;;;;;;9.00;2.35;;;6.40;99.90;;;;;;5051258;28;20651;-67
2023/01/12 07:32:00;;;;;;;5.13;2.00;;;6.40;99.90;;;;;;5035681;28;20038;-67
2023/01/12 07:34:28;;;;;;;10.82;2.70;;;6.40;99.90;;;;;;5029560;28;20050;-68
2023/01/12 07:36:56;;;;;;;11.60;2.45;;;6.40;99.90;;;;;;5014227;28;20060;-67
2023/01/12 07:39:23;;;;;;;14.15;2.85;;;6.40;99.90;;;;;;5014239;28;20037;-67
2023/01/12 07:44:36;;;;;;;5.88;2.20;;;6.50;99.90;;;;;;5031830;28;20447;-68
2023/01/12 07:47:04;;;;;;;11.10;2.80;;;6.50;99.90;;;;;;5031750;28;20049;-67
2023/01/12 07:49:31;;;;;;;9.82;2.63;;;6.50;99.90;;;;;;5030380;28;20479;-66
2023/01/12 07:51:58;;;;;;;15.15;2.78;;;6.60;99.90;;;;;;5031467;28;20045;-67
2023/01/12 07:54:26;;;;;;;14.10;2.63;;;6.60;99.90;;;;;;5030019;28;20037;-68
2023/01/12 07:56:53;;;;;;;14.27;2.95;;;6.60;99.90;;;;;;5029009;28;20449;-68
2023/01/12 07:59:20;;;;;;;9.80;2.55;;;6.60;99.90;;;;;;5031006;28;20079;-68
2023/01/12 08:01:47;;;;;;;9.82;2.67;;;6.70;99.90;;;;;;5013308;28;20083;-68
2023/01/12 08:04:15;;;;;;;7.95;2.38;;;6.80;99.90;;;;;;5031672;28;20092;-67
2023/01/12 08:06:42;;;;;;;9.85;2.65;;;6.90;99.90;;;;;;5031952;28;20069;-67
2023/01/12 08:09:09;;;;;;;7.97;2.50;;;6.90;99.90;;;;;;5029801;28;20045;-68
2023/01/12 08:11:37;;;;;;;11.80;2.92;;;6.90;99.90;;;;;;5013999;28;20474;-66
2023/01/12 08:14:05;;;;;;;10.40;2.45;;;6.90;99.90;;;;;;5031084;28;20609;-68
2023/01/12 08:16:36;;;;;;;8.27;2.50;;;6.90;99.90;;;;;;5030251;28;20045;-67
2023/01/12 08:19:07;;;;;;;;;;;6.90;99.90;;;;;;5030949;28;20519;-68
2023/01/12 08:21:48;;;;;;;12.57;3.28;;;7.00;99.90;;;;;;5003851;28;19925;-67
2023/01/12 08:24:21;;;;;;;13.13;3.30;;;7.00;99.90;;;;;;5029422;28;20487;-67
2023/01/12 08:26:52;;;;;;;14.23;2.67;;;7.10;99.90;;;;;;5012366;28;20088;-68
2023/01/12 08:29:30;;;;;;;14.18;3.03;;;7.00;99.90;;;;;;5028460;28;20046;-67
2023/01/12 08:32:05;;;;;;;19.17;3.03;;;7.00;99.90;;;;;;5012955;28;20054;-67
2023/01/12 08:34:34;;;;;;;10.45;2.60;;;7.00;99.90;;;;;;5029383;28;20041;-68
2023/01/12 08:37:05;;;;;;;8.18;2.63;;;7.00;99.90;;;;;;5028286;28;20052;-68
2023/01/12 08:39:34;;;;;;;15.05;3.40;;;7.10;99.90;;;;;;5030303;28;20054;-68
2023/01/12 08:42:02;;;;;;;8.10;2.58;;;7.10;99.90;;;;;;5030782;28;20045;-68
2023/01/12 08:44:35;;;;;;;11.52;2.88;;;7.10;99.90;;;;;;5030455;28;20283;-68
2023/01/12 08:47:04;;;;;;;10.05;2.80;;;7.30;99.90;;;;;;5028992;28;20042;-67
2023/01/12 08:49:32;;;;;;;9.23;2.70;;;7.30;99.90;;;;;;5030138;28;20038;-67
2023/01/12 08:52:00;;;;;;;10.82;2.42;;;7.30;99.90;;;;;;5014112;28;20099;-67
2023/01/12 08:54:27;;;;;;;12.40;2.70;;;7.30;99.90;;;;;;5030285;28;20496;-67
2023/01/12 08:56:55;;;;;;;10.98;2.75;;;7.40;99.90;;;;;;5029896;28;20048;-69
2023/01/12 08:59:22;;;;;;;9.18;2.30;;;7.50;99.90;;;;;;5029001;28;20149;-68
2023/01/12 09:01:50;;;;;;;8.57;2.78;;;7.60;99.90;;;;;;4988071;28;1216370;-68
2023/01/12 09:04:17;;;;;;;12.23;2.50;;;7.80;99.90;;;;;;5031052;28;20049;-72
2023/01/12 09:06:46;;;;;;;10.88;1.90;;;7.90;99.90;;;;;;5030279;28;20504;-68
2023/01/12 09:09:18;;;;;;;5.38;1.80;;;8.10;99.90;;;;;;5031765;28;20448;-71
2023/01/12 09:11:47;;;;;;;8.32;2.92;;;8.30;99.90;;;;;;5030704;28;20053;-69
2023/01/12 09:14:15;;;;;;;9.80;2.13;;;8.30;99.90;;;;;;5031569;28;20496;-65
2023/01/12 09:16:42;;;;;;;7.65;2.33;;;8.50;99.90;;;;;;5028678;28;20187;-71
2023/01/12 09:19:10;;;;;;;9.73;1.75;;;8.50;99.90;;;;;;5030395;28;20050;-65
2023/01/12 09:21:39;;;;;;;9.10;1.92;;;8.60;99.90;;;;;;5029013;28;20091;-68
2023/01/12 09:24:07;;;;;;;8.85;2.50;;;8.60;99.90;;;;;;5014475;28;20506;-70
2023/01/12 09:26:40;;;;;;;9.07;2.25;;;8.70;99.90;;;;;;5031326;28;20408;-67
2023/01/12 09:29:10;;;;;;;9.25;2.00;;;8.60;99.90;;;;;;5029998;28;20148;-69
2023/01/12 09:31:40;;;;;;;12.18;2.20;;;8.70;99.90;;;;;;5030394;28;20143;-69
2023/01/12 09:34:08;;;;;;;6.40;1.85;;;8.70;99.90;;;;;;5031077;28;20068;-68
2023/01/12 09:36:37;;;;;;;11.43;2.08;;;8.70;99.90;;;;;;5030959;28;20527;-69
2023/01/12 09:39:06;;;;;;;7.50;2.25;;;8.80;99.90;;;;;;5030757;28;20104;-68
2023/01/12 09:48:00;;;;;;;6.03;1.95;;;8.90;99.90;;;;;;4997459;28;20077;-67
2023/01/12 09:50:33;;;;;;;7.30;2.20;;;8.90;99.90;;;;;;5024252;28;20095;-68
2023/01/12 09:53:09;;;;;;;8.90;2.50;;;8.90;99.90;;;;;;5029961;28;20418;-67
2023/01/12 09:55:49;;;;;;;8.70;2.20;;;8.90;99.90;;;;;;5011869;28;20053;-68
2023/01/12 09:58:37;;;;;;;8.75;2.90;;;8.90;99.90;;;;;;5030035;28;20065;-69
2023/01/12 10:01:11;;;;;;;11.07;3.00;;;8.90;99.90;;;;;;5011574;28;20042;-67
2023/01/12 10:03:54;;;;;;;9.38;2.92;;;8.80;99.90;;;;;;5028534;28;20504;-68
2023/01/12 10:06:21;;;;;;;10.10;2.78;;;8.70;99.90;;;;;;5030270;28;20439;-70
2023/01/12 10:09:00;;;;;;;10.85;2.90;;;8.70;99.90;;;;;;5029666;28;20433;-68
2023/01/12 10:11:49;;;;;;;8.60;2.13;;;8.60;99.90;;;;;;5029838;28;20172;-68
2023/01/12 10:14:32;;;;;;;10.32;2.88;;;8.60;99.90;;;;;;5027703;28;20041;-69
2023/01/12 10:17:24;;;;;;;10.00;2.75;;;8.50;99.90;;;;;;5026942;28;20132;-69
2023/01/12 10:20:06;;;;;;;7.70;2.40;;;8.40;99.90;;;;;;5013995;28;20204;-67
2023/01/12 10:22:45;;;;;;;7.80;2.55;;;8.40;99.90;;;;;;5024284;28;20470;-68
2023/01/12 10:25:21;;;;;;;8.75;2.45;;;8.40;99.90;;;;;;5012607;28;20073;-68
2023/01/12 10:27:51;;;;;;;6.75;2.05;;;8.50;99.90;;;;;;5028944;28;20068;-69
2023/01/12 10:30:23;;;;;;;16.02;6.38;;;8.50;99.90;;;;;;5027755;28;20045;-69
2023/01/12 10:32:51;;;;;;;8.32;2.50;;;8.60;99.90;;;;;;5027742;28;20575;-69
2023/01/12 10:35:21;;;;;;;10.57;2.40;;;8.60;99.90;;;;;;5027051;28;20072;-67
2023/01/12 10:37:54;;;;;;;7.65;2.45;;;8.60;99.90;;;;;;5028173;28;20049;-69
2023/01/12 10:40:31;;;;;;;5.32;2.30;;;8.50;99.90;;;;;;5026002;28;20072;-65
2023/01/12 10:43:22;;;;;;;6.65;2.30;;;8.60;99.90;;;;;;5026892;28;20053;-68
2023/01/12 10:46:12;;;;;;;11.30;2.42;;;8.60;99.90;;;;;;5028969;28;20169;-68
2023/01/12 10:48:51;;;;;;;8.52;2.50;;;8.60;99.90;;;;;;5027763;28;20515;-67
2023/01/12 10:51:29;;;;;;;8.23;2.40;;;8.60;99.90;;;;;;5030240;28;20053;-68
2023/01/12 10:54:31;;;;;;;7.07;2.53;;;8.60;99.90;;;;;;5028421;28;20053;-67
2023/01/12 10:57:15;;;;;;;5.25;2.25;;;8.60;99.90;;;;;;5007316;28;20046;-68
2023/01/12 10:59:50;;;;;;;6.75;2.08;;;8.60;99.90;;;;;;5022939;28;20117;-68
2023/01/12 11:02:18;;;;;;;7.55;2.38;;;8.50;99.90;;;;;;5028684;28;20484;-69
2023/01/12 11:04:51;;;;;;;8.57;2.58;;;8.60;99.90;;;;;;5028321;28;20049;-67
2023/01/12 11:07:29;;;;;;;6.50;2.53;;;8.60;99.90;;;;;;5028477;28;20072;-69
2023/01/12 11:10:25;;;;;;;8.23;2.67;;;8.60;99.90;;;;;;5027584;28;20459;-66
2023/01/12 11:12:59;;;;;;;6.65;2.33;;;8.60;99.90;;;;;;5026473;28;20412;-67
2023/01/12 11:15:28;;;;;;;9.50;2.30;;;8.60;99.90;;;;;;5028122;28;20138;-67
2023/01/12 11:18:08;;;;;;;7.63;2.70;;;8.60;99.90;;;;;;5027536;28;20051;-66
2023/01/12 11:20:46;;;;;;;7.28;2.33;;;8.70;99.90;;;;;;5028793;28;20385;-68
2023/01/12 11:23:23;;;;;;;10.32;2.17;;;8.70;99.90;;;;;;5029513;28;20049;-68
2023/01/12 11:25:52;;;;;;;6.20;2.15;;;8.70;99.90;;;;;;5027175;28;20519;-68
2023/01/12 11:28:34;;;;;;;9.50;2.53;;;8.70;99.90;;;;;;5026549;28;20065;-67
2023/01/12 11:31:10;;;;;;;;;;;8.80;99.90;;;;;;5027513;28;20072;-68
2023/01/12 11:33:53;;;;;;;9.35;1.95;;;8.80;99.90;;;;;;5029038;28;19928;-68
2023/01/12 11:36:27;;;;;;;5.70;1.88;;;8.90;99.90;;;;;;5024355;28;20056;-69
2023/01/12 11:39:01;;;;;;;8.13;2.38;;;8.90;99.90;;;;;;5028825;28;20136;-67
2023/01/12 11:45:01;;;;;;;5.85;2.00;;;9.00;99.90;;;;;;5028923;28;20041;-68
2023/01/12 11:47:38;;;;;;;9.18;2.08;;;9.10;99.90;;;;;;5028985;28;20483;-68
2023/01/12 11:50:10;;;;;;;9.43;2.10;;;9.10;99.90;;;;;;5029045;28;20445;-69
2023/01/12 11:52:39;;;;;;;7.20;1.85;;;9.10;99.90;;;;;;5028385;28;20510;-68
2023/01/12 11:55:13;;;;;;;7.38;2.40;;;9.10;99.90;;;;;;5031111;28;20053;-66
2023/01/12 11:57:55;;;;;;;5.03;1.75;;;9.10;99.90;;;;;;5028717;28;20045;-67
2023/01/12 12:00:58;;;;;;;9.00;1.70;;;9.20;99.90;;;;;;5030683;28;20052;-67
2023/01/12 12:03:54;;;;;;;10.10;3.08;;;9.20;99.90;;;;;;5033580;28;20137;-70
2023/01/12 12:06:30;;;;;;;7.68;2.00;;;9.20;99.90;;;;;;5030812;28;20053;-69
2023/01/12 12:09:31;;;;;;;6.75;2.00;;;9.30;99.90;;;;;;5032441;28;20045;-67
2023/01/12 12:12:06;;;;;;;8.05;2.13;;;9.30;99.90;;;;;;5031387;28;20065;-67
2023/01/12 12:15:03;;;;;;;6.20;2.40;;;9.30;99.90;;;;;;5033293;28;20044;-68
2023/01/12 12:17:54;;;;;;;8.07;2.00;;;9.30;99.90;;;;;;5033257;28;20068;-67
2023/01/12 12:20:33;;;;;;;7.03;2.13;;;9.40;99.90;;;;;;5026574;28;20753;-68
2023/01/12 12:23:03;;;;;;;5.05;1.80;;;9.40;99.90;;;;;;5023897;28;20053;-68
2023/01/12 12:26:12;;;;;;;5.57;1.85;;;9.40;99.90;;;;;;5030088;28;20049;-67
2023/01/12 12:29:13;;;;;;;6.35;2.17;;;9.40;99.90;;;;;;4971632;28;20474;-70
2023/01/12 12:31:58;;;;;;;7.72;1.95;;;9.40;99.90;;;;;;4970924;28;20051;-67
2023/01/12 12:34:44;;;;;;;6.95;2.17;;;9.50;99.90;;;;;;4974300;28;20137;-68
2023/01/12 12:37:25;;;;;;;6.90;2.10;;;9.50;99.90;;;;;;4987191;28;20772;-69
2023/01/12 12:40:14;;;;;;;8.07;2.50;;;9.50;99.90;;;;;;4986577;28;20053;-70
2023/01/12 12:45:59;;;;;;;8.25;1.95;;;9.60;99.90;;;;;;4958626;28;20133;-69
2023/01/12 12:48:58;;;;;;;4.40;2.30;;;9.60;99.90;;;;;;4987424;28;20433;-68
2023/01/12 12:51:31;;;;;;;5.18;1.77;;;9.50;99.90;;;;;;4960250;28;20046;-69
2023/01/12 12:54:10;;;;;;;7.45;1.92;;;9.60;99.90;;;;;;4973235;28;20227;-73
2023/01/12 12:56:38;;;;;;;5.32;1.92;;;9.60;99.90;;;;;;4943132;28;20117;-72
2023/01/12 12:59:06;;;;;;;5.38;1.77;;;9.70;99.90;;;;;;4970597;28;20050;-68
2023/01/12 13:01:34;;;;;;;4.60;2.00;;;9.60;99.90;;;;;;4975873;28;20053;-67
2023/01/12 13:04:03;;;;;;;5.90;2.42;;;9.70;99.90;;;;;;5030934;28;20064;-74
2023/01/12 13:06:37;;;;;;;4.88;1.90;;;9.80;99.90;;;;;;5027036;28;20083;-68
2023/01/12 13:09:10;;;;;;;8.82;2.70;;;9.80;99.90;;;;;;5030616;28;20564;-68
2023/01/12 13:11:52;;;;;;;4.50;1.60;;;9.80;99.90;;;;;;5028966;28;20484;-69
2023/01/12 13:14:29;;;;;;;5.32;1.95;;;9.80;99.90;;;;;;5030901;28;20041;-68
2023/01/12 13:17:18;;;;;;;7.60;2.25;;;9.80;99.90;;;;;;5013585;28;20136;-68
2023/01/12 13:19:50;;;;;;;5.70;2.10;;;9.70;99.90;;;;;;5026613;28;20033;-69
2023/01/12 13:22:41;;;;;;;6.55;2.45;;;9.70;99.90;;;;;;5029921;28;20041;-69
2023/01/12 13:25:09;;;;;;;5.15;1.63;;;9.70;99.90;;;;;;5024964;28;20550;-70
2023/01/12 13:28:00;;;;;;;4.00;1.80;;;9.70;99.90;;;;;;5031919;28;20065;-69
2023/01/12 13:30:27;;;;;;;2.83;1.52;;;9.80;99.90;;;;;;5027271;28;20599;-69
2023/01/12 13:33:15;;;;;;;6.63;1.80;;;9.80;99.90;;;;;;5030156;28;20045;-68
2023/01/12 13:35:43;;;;;;;7.57;1.85;;;9.80;99.90;;;;;;5024827;28;20444;-69
2023/01/12 13:38:32;;;;;;;4.07;1.42;;;9.80;99.90;;;;;;5029541;28;20522;-68
2023/01/12 13:44:13;;;;;;;6.28;2.03;;;9.80;99.90;;;;;;5027606;28;20041;-69
2023/01/12 13:46:47;;;;;;;8.18;1.70;;;9.80;99.90;;;;;;5030310;28;20052;-66
2023/01/12 13:49:32;;;;;;;4.57;1.70;;;9.80;99.90;;;;;;5026337;28;20115;-68
2023/01/12 13:52:05;;;;;;;6.13;1.60;;;9.80;99.90;;;;;;5030176;28;20488;-70
2023/01/12 13:54:33;;;;;;;3.65;1.70;;;9.70;99.90;;;;;;5029674;28;20457;-68
2023/01/12 13:57:16;;;;;;;5.47;1.80;;;9.70;99.90;;;;;;5028693;28;20041;-69
2023/01/12 14:00:09;;;;;;;5.30;1.70;;;9.70;99.90;;;;;;5027444;28;20034;-69
2023/01/12 14:02:40;;;;;;;3.33;1.52;;;9.70;99.90;;;;;;5010462;28;20416;-69
2023/01/12 14:05:42;;;;;;;5.38;1.90;;;9.70;99.90;;;;;;5009226;28;20088;-69